sensor_id;sensor_type;location;lat;lon;timestamp;pressure;altitude;pressure_sealevel;temperature;humidity
20368;BME280;10343;52.402;9.796;2022-08-07T00:02:37;102146.66;;;15.29;63.44
20368;BME280;10343;52.402;9.796;2022-08-07T00:05:11;102151.13;;;15.29;64.00
20368;BME280;10343;52.402;9.796;2022-08-07T00:07:39;102149.34;;;15.28;64.64
20368;BME280;10343;52.402;9.796;2022-08-07T00:10:09;102145.81;;;15.26;64.70
20368;BME280;10343;52.402;9.796;2022-08-07T00:12:55;102143.19;;;15.24;64.67
20368;BME280;10343;52.402;9.796;2022-08-07T00:15:27;102142.38;;;15.21;64.75
20368;BME280;10343;52.402;9.796;2022-08-07T00:18:13;102137.06;;;15.18;64.95
20368;BME280;10343;52.402;9.796;2022-08-07T00:20:45;102145.16;;;15.15;64.66
20368;BME280;10343;52.402;9.796;2022-08-07T00:23:15;102137.22;;;15.11;65.17
20368;BME280;10343;52.402;9.796;2022-08-07T00:25:44;102140.84;;;15.07;65.73
20368;BME280;10343;52.402;9.796;2022-08-07T00:28:28;102138.31;;;15.00;65.91
20368;BME280;10343;52.402;9.796;2022-08-07T00:31:01;102145.53;;;14.93;67.10
20368;BME280;10343;52.402;9.796;2022-08-07T00:33:39;102141.97;;;14.94;67.83
20368;BME280;10343;52.402;9.796;2022-08-07T00:36:08;102144.72;;;14.91;67.30
20368;BME280;10343;52.402;9.796;2022-08-07T00:38:37;102135.78;;;14.92;67.48
20368;BME280;10343;52.402;9.796;2022-08-07T00:41:07;102135.81;;;14.89;67.57
20368;BME280;10343;52.402;9.796;2022-08-07T00:43:41;102129.75;;;14.81;67.60
20368;BME280;10343;52.402;9.796;2022-08-07T00:46:27;102130.69;;;14.78;68.67
20368;BME280;10343;52.402;9.796;2022-08-07T00:48:56;102133.38;;;14.78;68.46
20368;BME280;10343;52.402;9.796;2022-08-07T00:51:28;102133.50;;;14.70;68.42
20368;BME280;10343;52.402;9.796;2022-08-07T00:54:16;102126.34;;;14.71;69.38
20368;BME280;10343;52.402;9.796;2022-08-07T00:56:47;102132.59;;;14.71;68.51
20368;BME280;10343;52.402;9.796;2022-08-07T00:59:16;102134.38;;;14.71;68.57
20368;BME280;10343;52.402;9.796;2022-08-07T01:02:02;102139.72;;;14.69;67.91
20368;BME280;10343;52.402;9.796;2022-08-07T01:04:39;102141.56;;;14.67;67.94
20368;BME280;10343;52.402;9.796;2022-08-07T01:07:10;102146.00;;;14.67;68.05
20368;BME280;10343;52.402;9.796;2022-08-07T01:09:38;102144.28;;;14.63;67.96
20368;BME280;10343;52.402;9.796;2022-08-07T01:12:29;102140.72;;;14.62;67.57
20368;BME280;10343;52.402;9.796;2022-08-07T01:14:58;102143.44;;;14.59;68.25
20368;BME280;10343;52.402;9.796;2022-08-07T01:17:31;102148.81;;;14.56;68.70
20368;BME280;10343;52.402;9.796;2022-08-07T01:20:04;102140.03;;;14.51;69.15
20368;BME280;10343;52.402;9.796;2022-08-07T01:22:35;102146.28;;;14.48;69.39
20368;BME280;10343;52.402;9.796;2022-08-07T01:25:20;102152.56;;;14.46;69.90
20368;BME280;10343;52.402;9.796;2022-08-07T01:28:08;102150.91;;;14.38;70.46
20368;BME280;10343;52.402;9.796;2022-08-07T01:30:38;102148.22;;;14.38;70.94
20368;BME280;10343;52.402;9.796;2022-08-07T01:33:09;102148.22;;;14.38;70.41
20368;BME280;10343;52.402;9.796;2022-08-07T01:35:37;102142.19;;;14.27;71.13
20368;BME280;10343;52.402;9.796;2022-08-07T01:38:26;102132.47;;;14.21;71.45
20368;BME280;10343;52.402;9.796;2022-08-07T01:41:02;102129.75;;;14.26;72.32
20368;BME280;10343;52.402;9.796;2022-08-07T01:43:33;102142.19;;;14.27;71.55
20368;BME280;10343;52.402;9.796;2022-08-07T01:46:06;102133.31;;;14.25;70.97
20368;BME280;10343;52.402;9.796;2022-08-07T01:48:40;102132.47;;;14.23;71.67
20368;BME280;10343;52.402;9.796;2022-08-07T01:51:23;102127.06;;;14.26;70.94
20368;BME280;10343;52.402;9.796;2022-08-07T01:54:13;102128.09;;;14.19;70.99
20368;BME280;10343;52.402;9.796;2022-08-07T01:57:05;102129.03;;;14.13;72.12
20368;BME280;10343;52.402;9.796;2022-08-07T01:59:52;102126.38;;;14.12;73.08
20368;BME280;10343;52.402;9.796;2022-08-07T02:02:28;102129.97;;;14.09;72.72
20368;BME280;10343;52.402;9.796;2022-08-07T02:05:24;102127.41;;;14.03;72.73
20368;BME280;10343;52.402;9.796;2022-08-07T02:08:16;102127.47;;;14.00;72.83
20368;BME280;10343;52.402;9.796;2022-08-07T02:10:53;102130.16;;;13.98;73.00
20368;BME280;10343;52.402;9.796;2022-08-07T02:13:28;102126.63;;;13.96;72.86
20368;BME280;10343;52.402;9.796;2022-08-07T02:16:18;102132.00;;;13.93;72.93
20368;BME280;10343;52.402;9.796;2022-08-07T02:19:01;102126.00;;;13.77;74.33
20368;BME280;10343;52.402;9.796;2022-08-07T02:21:50;102125.03;;;13.83;75.44
20368;BME280;10343;52.402;9.796;2022-08-07T02:24:23;102121.50;;;13.81;74.67
20368;BME280;10343;52.402;9.796;2022-08-07T02:26:57;102120.63;;;13.80;74.07
20368;BME280;10343;52.402;9.796;2022-08-07T02:29:30;102109.06;;;13.80;74.14
20368;BME280;10343;52.402;9.796;2022-08-07T02:32:03;102117.94;;;13.82;74.04
20368;BME280;10343;52.402;9.796;2022-08-07T02:34:37;102109.06;;;13.80;74.43
20368;BME280;10343;52.402;9.796;2022-08-07T02:37:19;102118.88;;;13.78;73.92
20368;BME280;10343;52.402;9.796;2022-08-07T02:39:50;102118.00;;;13.75;73.71
20368;BME280;10343;52.402;9.796;2022-08-07T02:42:40;102116.28;;;13.71;73.95
20368;BME280;10343;52.402;9.796;2022-08-07T02:45:12;102116.28;;;13.71;73.84
20368;BME280;10343;52.402;9.796;2022-08-07T02:48:01;102109.19;;;13.70;73.79
20368;BME280;10343;52.402;9.796;2022-08-07T02:50:38;102108.38;;;13.67;74.06
20368;BME280;10343;52.402;9.796;2022-08-07T02:53:09;102108.34;;;13.68;73.90
20368;BME280;10343;52.402;9.796;2022-08-07T02:55:42;102114.63;;;13.64;74.63
20368;BME280;10343;52.402;9.796;2022-08-07T02:58:34;102107.56;;;13.60;74.49
20368;BME280;10343;52.402;9.796;2022-08-07T03:01:14;102109.34;;;13.58;74.30
20368;BME280;10343;52.402;9.796;2022-08-07T03:04:03;102102.31;;;13.54;74.93
20368;BME280;10343;52.402;9.796;2022-08-07T03:06:33;102104.91;;;13.60;74.88
20368;BME280;10343;52.402;9.796;2022-08-07T03:09:05;102109.34;;;13.58;75.01
20368;BME280;10343;52.402;9.796;2022-08-07T03:11:38;102111.13;;;13.59;74.90
20368;BME280;10343;52.402;9.796;2022-08-07T03:14:28;102099.66;;;13.52;75.01
20368;BME280;10343;52.402;9.796;2022-08-07T03:16:56;102108.56;;;13.51;75.31
20368;BME280;10343;52.402;9.796;2022-08-07T03:19:24;102113.06;;;13.48;75.34
20368;BME280;10343;52.402;9.796;2022-08-07T03:22:04;102109.50;;;13.46;75.91
20368;BME280;10343;52.402;9.796;2022-08-07T03:24:33;102107.78;;;13.45;75.82
20368;BME280;10343;52.402;9.796;2022-08-07T03:27:05;102112.28;;;13.38;76.42
20368;BME280;10343;52.402;9.796;2022-08-07T03:29:48;102112.31;;;13.35;77.32
20368;BME280;10343;52.402;9.796;2022-08-07T03:32:24;102119.38;;;13.34;77.33
20368;BME280;10343;52.402;9.796;2022-08-07T03:34:57;102114.09;;;13.33;77.58
20368;BME280;10343;52.402;9.796;2022-08-07T03:37:49;102116.75;;;13.33;77.08
20368;BME280;10343;52.402;9.796;2022-08-07T03:40:24;102113.22;;;13.32;76.93
20368;BME280;10343;52.402;9.796;2022-08-07T03:42:59;102108.81;;;13.30;76.59
20368;BME280;10343;52.402;9.796;2022-08-07T03:45:32;102115.03;;;13.27;77.08
20368;BME280;10343;52.402;9.796;2022-08-07T03:48:11;102115.09;;;13.24;77.28
20368;BME280;10343;52.402;9.796;2022-08-07T03:50:39;102124.03;;;13.18;77.46
20368;BME280;10343;52.402;9.796;2022-08-07T03:53:24;102122.38;;;13.06;78.31
20368;BME280;10343;52.402;9.796;2022-08-07T03:56:19;102117.00;;;13.09;78.99
20368;BME280;10343;52.402;9.796;2022-08-07T03:59:00;102118.78;;;13.11;79.09
20368;BME280;10343;52.402;9.796;2022-08-07T04:01:41;102118.84;;;13.04;78.79
20368;BME280;10343;52.402;9.796;2022-08-07T04:04:14;102120.59;;;13.08;79.23
20368;BME280;10343;52.402;9.796;2022-08-07T04:06:46;102121.47;;;13.09;78.75
20368;BME280;10343;52.402;9.796;2022-08-07T04:09:18;102116.16;;;13.07;78.63
20368;BME280;10343;52.402;9.796;2022-08-07T04:11:53;102122.34;;;13.08;78.59
20368;BME280;10343;52.402;9.796;2022-08-07T04:14:42;102117.94;;;13.05;78.93
20368;BME280;10343;52.402;9.796;2022-08-07T04:17:17;102114.53;;;12.91;79.99
20368;BME280;10343;52.402;9.796;2022-08-07T04:19:54;102117.13;;;13.00;80.64
20368;BME280;10343;52.402;9.796;2022-08-07T04:22:26;102118.84;;;13.04;80.46
20368;BME280;10343;52.402;9.796;2022-08-07T04:25:02;102118.81;;;13.07;80.17
20368;BME280;10343;52.402;9.796;2022-08-07T04:27:40;102125.84;;;13.15;79.57
20368;BME280;10343;52.402;9.796;2022-08-07T04:30:14;102124.03;;;13.15;79.01
20368;BME280;10343;52.402;9.796;2022-08-07T04:33:13;102114.28;;;13.17;79.74
20368;BME280;10343;52.402;9.796;2022-08-07T04:35:46;102120.53;;;13.12;79.22
20368;BME280;10343;52.402;9.796;2022-08-07T04:38:23;102123.22;;;13.12;79.93
20368;BME280;10343;52.402;9.796;2022-08-07T04:40:51;102122.19;;;13.22;80.72
20368;BME280;10343;52.402;9.796;2022-08-07T04:43:38;102123.00;;;13.29;80.08
20368;BME280;10343;52.402;9.796;2022-08-07T04:46:35;102122.09;;;13.31;80.41
20368;BME280;10343;52.402;9.796;2022-08-07T04:49:36;102124.69;;;13.40;80.25
20368;BME280;10343;52.402;9.796;2022-08-07T04:52:15;102129.94;;;13.45;79.64
20368;BME280;10343;52.402;9.796;2022-08-07T04:54:56;102129.00;;;13.49;79.13
20368;BME280;10343;52.402;9.796;2022-08-07T04:57:31;102125.34;;;13.58;78.60
20368;BME280;10343;52.402;9.796;2022-08-07T05:00:39;102126.16;;;13.65;78.13
20368;BME280;10343;52.402;9.796;2022-08-07T05:03:15;102126.09;;;13.71;77.97
20368;BME280;10343;52.402;9.796;2022-08-07T05:06:10;102122.47;;;13.75;77.54
20368;BME280;10343;52.402;9.796;2022-08-07T05:08:55;102121.50;;;13.81;77.16
20368;BME280;10343;52.402;9.796;2022-08-07T05:11:38;102121.41;;;13.87;77.30
20368;BME280;10343;52.402;9.796;2022-08-07T05:14:35;102124.91;;;13.92;77.69
20368;BME280;10343;52.402;9.796;2022-08-07T05:17:26;102112.41;;;13.97;78.10
20368;BME280;10343;52.402;9.796;2022-08-07T05:20:19;102121.22;;;14.02;78.10
20368;BME280;10343;52.402;9.796;2022-08-07T05:22:58;102127.34;;;14.07;77.68
20368;BME280;10343;52.402;9.796;2022-08-07T05:25:31;102123.81;;;14.05;79.31
20368;BME280;10343;52.402;9.796;2022-08-07T05:28:20;102123.81;;;14.07;78.98
20368;BME280;10343;52.402;9.796;2022-08-07T05:30:54;102129.06;;;14.12;78.97
20368;BME280;10343;52.402;9.796;2022-08-07T05:33:27;102135.22;;;14.17;78.69
20368;BME280;10343;52.402;9.796;2022-08-07T05:36:06;102128.09;;;14.19;76.45
20368;BME280;10343;52.402;9.796;2022-08-07T05:38:40;102139.50;;;14.29;76.29
20368;BME280;10343;52.402;9.796;2022-08-07T05:41:33;102130.50;;;14.34;74.91
20368;BME280;10343;52.402;9.796;2022-08-07T05:44:21;102129.41;;;14.48;74.11
20368;BME280;10343;52.402;9.796;2022-08-07T05:46:58;102131.06;;;14.55;73.82
20368;BME280;10343;52.402;9.796;2022-08-07T05:49:47;102136.44;;;14.52;71.69
20368;BME280;10343;52.402;9.796;2022-08-07T05:52:17;102136.31;;;14.59;72.72
20368;BME280;10343;52.402;9.796;2022-08-07T05:54:57;102139.78;;;14.66;70.87
20368;BME280;10343;52.402;9.796;2022-08-07T05:57:35;102137.06;;;14.69;69.96
20368;BME280;10343;52.402;9.796;2022-08-07T06:00:12;102137.75;;;14.81;70.66
20368;BME280;10343;52.402;9.796;2022-08-07T06:02:51;102143.00;;;14.87;70.33
20368;BME280;10343;52.402;9.796;2022-08-07T06:05:22;102145.59;;;14.90;69.16
20368;BME280;10343;52.402;9.796;2022-08-07T06:07:59;102144.63;;;14.94;70.08
20368;BME280;10343;52.402;9.796;2022-08-07T06:10:49;102138.28;;;15.03;69.44
20368;BME280;10343;52.402;9.796;2022-08-07T06:13:21;102140.84;;;15.07;68.97
20368;BME280;10343;52.402;9.796;2022-08-07T06:16:11;102140.72;;;15.14;68.41
20368;BME280;10343;52.402;9.796;2022-08-07T06:18:42;102143.31;;;15.18;67.95
20368;BME280;10343;52.402;9.796;2022-08-07T06:21:23;102142.25;;;15.27;67.86
20368;BME280;10343;52.402;9.796;2022-08-07T06:24:12;102149.28;;;15.31;67.30
20368;BME280;10343;52.402;9.796;2022-08-07T06:27:02;102145.50;;;15.43;67.49
20368;BME280;10343;52.402;9.796;2022-08-07T06:29:32;102150.69;;;15.51;66.95
20368;BME280;10343;52.402;9.796;2022-08-07T06:32:05;102148.78;;;15.56;66.67
20368;BME280;10343;52.402;9.796;2022-08-07T06:34:33;102142.38;;;15.65;66.80
20368;BME280;10343;52.402;9.796;2022-08-07T06:37:06;102137.78;;;15.71;66.75
20368;BME280;10343;52.402;9.796;2022-08-07T06:39:37;102134.13;;;15.75;65.94
20368;BME280;10343;52.402;9.796;2022-08-07T06:42:31;102133.13;;;15.81;65.34
20368;BME280;10343;52.402;9.796;2022-08-07T06:45:22;102137.41;;;15.90;66.18
20368;BME280;10343;52.402;9.796;2022-08-07T06:47:56;102140.84;;;15.96;65.65
20368;BME280;10343;52.402;9.796;2022-08-07T06:50:39;102148.72;;;16.03;65.94
20368;BME280;10343;52.402;9.796;2022-08-07T06:53:14;102146.75;;;16.11;65.32
20368;BME280;10343;52.402;9.796;2022-08-07T06:56:05;102133.19;;;16.19;64.62
20368;BME280;10343;52.402;9.796;2022-08-07T06:58:45;102144.50;;;16.30;63.89
20368;BME280;10343;52.402;9.796;2022-08-07T07:01:38;102139.91;;;16.37;62.54
20368;BME280;10343;52.402;9.796;2022-08-07T07:04:17;102136.28;;;16.39;61.80
20368;BME280;10343;52.402;9.796;2022-08-07T07:07:00;102128.75;;;16.54;62.21
20368;BME280;10343;52.402;9.796;2022-08-07T07:09:49;102135.66;;;16.64;61.57
20368;BME280;10343;52.402;9.796;2022-08-07T07:12:38;102128.31;;;16.72;61.41
20368;BME280;10343;52.402;9.796;2022-08-07T07:15:20;102125.50;;;16.77;62.47
20368;BME280;10343;52.402;9.796;2022-08-07T07:18:09;102123.50;;;16.85;62.30
20368;BME280;10343;52.402;9.796;2022-08-07T07:20:42;102124.34;;;16.89;60.08
20368;BME280;10343;52.402;9.796;2022-08-07T07:23:15;102128.47;;;17.01;60.67
20368;BME280;10343;52.402;9.796;2022-08-07T07:26:07;102129.38;;;17.01;60.28
20368;BME280;10343;52.402;9.796;2022-08-07T07:28:58;102124.59;;;17.12;60.95
20368;BME280;10343;52.402;9.796;2022-08-07T07:31:52;102119.88;;;17.21;59.60
20368;BME280;10343;52.402;9.796;2022-08-07T07:34:24;102108.88;;;17.30;59.15
20368;BME280;10343;52.402;9.796;2022-08-07T07:36:59;102108.81;;;17.33;59.54
20368;BME280;10343;52.402;9.796;2022-08-07T07:39:49;102111.34;;;17.38;58.75
20368;BME280;10343;52.402;9.796;2022-08-07T07:42:22;102105.78;;;17.45;58.05
20368;BME280;10343;52.402;9.796;2022-08-07T07:45:00;102108.31;;;17.50;58.22
20368;BME280;10343;52.402;9.796;2022-08-07T07:47:30;102109.84;;;17.59;59.63
20368;BME280;10343;52.402;9.796;2022-08-07T07:50:20;102111.44;;;17.66;58.83
20368;BME280;10343;52.402;9.796;2022-08-07T07:53:04;102107.72;;;17.70;55.49
20368;BME280;10343;52.402;9.796;2022-08-07T07:55:51;102103.06;;;17.77;56.75
20368;BME280;10343;52.402;9.796;2022-08-07T07:58:28;102102.00;;;17.82;56.61
20368;BME280;10343;52.402;9.796;2022-08-07T08:01:07;102103.38;;;17.96;57.40
20368;BME280;10343;52.402;9.796;2022-08-07T08:04:01;102099.59;;;18.03;56.44
20368;BME280;10343;52.402;9.796;2022-08-07T08:06:37;102094.22;;;18.03;55.23
20368;BME280;10343;52.402;9.796;2022-08-07T08:09:19;102093.19;;;18.07;54.56
20368;BME280;10343;52.402;9.796;2022-08-07T08:11:49;102089.50;;;18.10;55.86
20368;BME280;10343;52.402;9.796;2022-08-07T08:14:30;102082.13;;;18.16;56.13
20368;BME280;10343;52.402;9.796;2022-08-07T08:17:02;102084.47;;;18.27;55.31
20368;BME280;10343;52.402;9.796;2022-08-07T08:19:57;102082.56;;;18.31;54.77
20368;BME280;10343;52.402;9.796;2022-08-07T08:22:47;102077.72;;;18.42;54.39
20368;BME280;10343;52.402;9.796;2022-08-07T08:25:37;102081.81;;;18.53;54.55
20368;BME280;10343;52.402;9.796;2022-08-07T08:28:31;102072.66;;;18.60;53.91
20368;BME280;10343;52.402;9.796;2022-08-07T08:31:07;102071.38;;;18.70;52.90
20368;BME280;10343;52.402;9.796;2022-08-07T08:33:42;102072.09;;;18.75;52.63
20368;BME280;10343;52.402;9.796;2022-08-07T08:36:24;102072.69;;;18.83;51.97
20368;BME280;10343;52.402;9.796;2022-08-07T08:38:56;102069.66;;;18.94;52.41
20368;BME280;10343;52.402;9.796;2022-08-07T08:41:33;102073.81;;;19.03;50.80
20368;BME280;10343;52.402;9.796;2022-08-07T08:44:26;102075.19;;;19.15;51.02
20368;BME280;10343;52.402;9.796;2022-08-07T08:47:04;102079.34;;;19.24;50.56
20368;BME280;10343;52.402;9.796;2022-08-07T08:49:43;102065.88;;;19.24;50.01
20368;BME280;10343;52.402;9.796;2022-08-07T08:52:34;102066.59;;;19.29;50.09
20368;BME280;10343;52.402;9.796;2022-08-07T08:55:24;102066.25;;;19.38;49.62
20368;BME280;10343;52.402;9.796;2022-08-07T08:58:17;102064.38;;;19.40;49.73
20368;BME280;10343;52.402;9.796;2022-08-07T09:00:59;102064.72;;;19.55;49.51
20368;BME280;10343;52.402;9.796;2022-08-07T09:03:51;102059.47;;;19.74;48.02
20368;BME280;10343;52.402;9.796;2022-08-07T09:06:43;102056.84;;;19.72;46.76
20368;BME280;10343;52.402;9.796;2022-08-07T09:09:30;102062.94;;;19.77;47.50
20368;BME280;10343;52.402;9.796;2022-08-07T09:12:11;102053.56;;;19.88;47.95
20368;BME280;10343;52.402;9.796;2022-08-07T09:15:03;102052.13;;;20.01;46.01
20368;BME280;10343;52.402;9.796;2022-08-07T09:18:03;102055.31;;;20.11;44.96
20368;BME280;10343;52.402;9.796;2022-08-07T09:20:46;102048.69;;;20.19;45.58
20368;BME280;10343;52.402;9.796;2022-08-07T09:23:32;102053.78;;;20.26;45.04
20368;BME280;10343;52.402;9.796;2022-08-07T09:26:27;102044.50;;;20.33;45.33
20368;BME280;10343;52.402;9.796;2022-08-07T09:29:02;102047.63;;;20.44;44.80
20368;BME280;10343;52.402;9.796;2022-08-07T09:31:59;102041.03;;;20.51;43.12
20368;BME280;10343;52.402;9.796;2022-08-07T09:34:51;102040.81;;;20.56;43.56
20368;BME280;10343;52.402;9.796;2022-08-07T09:37:29;102035.31;;;20.39;43.51
20368;BME280;10343;52.402;9.796;2022-08-07T09:40:25;102039.69;;;20.62;43.18
20368;BME280;10343;52.402;9.796;2022-08-07T09:43:02;102028.91;;;20.62;42.59
20368;BME280;10343;52.402;9.796;2022-08-07T09:45:39;102024.06;;;20.70;41.19
20368;BME280;10343;52.402;9.796;2022-08-07T09:48:40;102018.13;;;20.82;41.25
20368;BME280;10343;52.402;9.796;2022-08-07T09:51:39;102016.56;;;20.97;42.11
20368;BME280;10343;52.402;9.796;2022-08-07T09:54:35;102015.41;;;21.03;40.96
20368;BME280;10343;52.402;9.796;2022-08-07T10:00:20;102009.97;;;21.62;40.65
20368;BME280;10343;52.402;9.796;2022-08-07T10:03:35;102007.63;;;21.73;41.04
20368;BME280;10343;52.402;9.796;2022-08-07T10:10:02;101999.84;;;21.67;40.72
20368;BME280;10343;52.402;9.796;2022-08-07T10:13:10;102000.38;;;21.56;41.29
20368;BME280;10343;52.402;9.796;2022-08-07T10:16:10;102000.03;;;21.43;41.48
20368;BME280;10343;52.402;9.796;2022-08-07T10:19:04;102004.91;;;21.35;41.63
20368;BME280;10343;52.402;9.796;2022-08-07T10:21:42;101996.53;;;21.22;41.26
20368;BME280;10343;52.402;9.796;2022-08-07T10:24:48;101997.41;;;21.23;40.34
20368;BME280;10343;52.402;9.796;2022-08-07T10:27:47;101990.13;;;21.25;39.95
20368;BME280;10343;52.402;9.796;2022-08-07T10:30:26;101990.88;;;21.28;39.90
20368;BME280;10343;52.402;9.796;2022-08-07T10:33:20;101989.09;;;21.08;39.92
20368;BME280;10343;52.402;9.796;2022-08-07T10:36:31;101989.84;;;20.93;41.02
20368;BME280;10343;52.402;9.796;2022-08-07T10:39:11;101978.47;;;21.05;41.17
20368;BME280;10343;52.402;9.796;2022-08-07T10:41:56;101983.41;;;21.14;40.92
20368;BME280;10343;52.402;9.796;2022-08-07T10:44:51;101980.88;;;21.30;41.13
20368;BME280;10343;52.402;9.796;2022-08-07T10:47:30;101978.44;;;21.43;40.12
20368;BME280;10343;52.402;9.796;2022-08-07T10:50:25;101968.06;;;21.54;41.07
20368;BME280;10343;52.402;9.796;2022-08-07T10:53:02;101967.66;;;21.62;41.42
20368;BME280;10343;52.402;9.796;2022-08-07T10:55:41;101966.34;;;21.71;40.36
20368;BME280;10343;52.402;9.796;2022-08-07T10:58:30;101967.78;;;21.78;40.94
20368;BME280;10343;52.402;9.796;2022-08-07T11:01:24;101959.28;;;21.86;40.46
20368;BME280;10343;52.402;9.796;2022-08-07T11:04:23;101960.00;;;21.89;40.09
20368;BME280;10343;52.402;9.796;2022-08-07T11:07:09;101952.56;;;22.12;39.46
20368;BME280;10343;52.402;9.796;2022-08-07T11:10:02;101939.22;;;22.44;39.09
20368;BME280;10343;52.402;9.796;2022-08-07T11:12:42;101938.56;;;22.56;38.43
20368;BME280;10343;52.402;9.796;2022-08-07T11:15:21;101931.69;;;22.67;37.22
20368;BME280;10343;52.402;9.796;2022-08-07T11:18:03;101927.81;;;22.88;37.34
20368;BME280;10343;52.402;9.796;2022-08-07T11:20:42;101923.38;;;23.03;37.06
20368;BME280;10343;52.402;9.796;2022-08-07T11:23:19;101921.41;;;23.39;35.92
20368;BME280;10343;52.402;9.796;2022-08-07T11:26:09;101915.09;;;23.54;35.63
20368;BME280;10343;52.402;9.796;2022-08-07T11:28:45;101919.13;;;23.15;35.31
20368;BME280;10343;52.402;9.796;2022-08-07T11:31:28;101913.72;;;23.15;35.08
20368;BME280;10343;52.402;9.796;2022-08-07T11:34:07;101915.19;;;23.05;34.74
20368;BME280;10343;52.402;9.796;2022-08-07T11:36:48;101918.81;;;22.72;34.90
20368;BME280;10343;52.402;9.796;2022-08-07T11:39:47;101911.00;;;22.66;35.09
20368;BME280;10343;52.402;9.796;2022-08-07T11:42:36;101903.63;;;22.36;35.76
20368;BME280;10343;52.402;9.796;2022-08-07T11:45:19;101910.31;;;22.11;36.24
20368;BME280;10343;52.402;9.796;2022-08-07T11:48:21;101905.06;;;22.08;36.94
20368;BME280;10343;52.402;9.796;2022-08-07T11:51:12;101902.88;;;22.32;35.68
20368;BME280;10343;52.402;9.796;2022-08-07T11:54:18;101902.03;;;22.32;35.59
20368;BME280;10343;52.402;9.796;2022-08-07T11:57:04;101895.81;;;22.30;36.23
20368;BME280;10343;52.402;9.796;2022-08-07T12:00:00;101890.97;;;22.19;37.72
20368;BME280;10343;52.402;9.796;2022-08-07T12:03:18;101899.03;;;22.20;36.33
20368;BME280;10343;52.402;9.796;2022-08-07T12:09:23;101890.28;;;22.15;35.60
20368;BME280;10343;52.402;9.796;2022-08-07T12:11:58;101884.91;;;22.31;35.72
20368;BME280;10343;52.402;9.796;2022-08-07T12:14:47;101886.31;;;22.40;36.23
20368;BME280;10343;52.402;9.796;2022-08-07T12:17:31;101886.59;;;22.51;35.05
20368;BME280;10343;52.402;9.796;2022-08-07T12:20:05;101880.50;;;22.64;35.72
20368;BME280;10343;52.402;9.796;2022-08-07T12:23:13;101875.47;;;22.89;35.30
20368;BME280;10343;52.402;9.796;2022-08-07T12:26:13;101870.16;;;23.04;35.34
20368;BME280;10343;52.402;9.796;2022-08-07T12:29:02;101865.34;;;23.41;34.34
20368;BME280;10343;52.402;9.796;2022-08-07T12:31:36;101863.38;;;23.59;35.43
20368;BME280;10343;52.402;9.796;2022-08-07T12:34:28;101863.53;;;23.72;36.08
20368;BME280;10343;52.402;9.796;2022-08-07T12:36:58;101866.81;;;23.77;34.11
20368;BME280;10343;52.402;9.796;2022-08-07T12:39:34;101857.03;;;23.90;33.99
20368;BME280;10343;52.402;9.796;2022-08-07T12:42:19;101852.41;;;23.77;32.46
20368;BME280;10343;52.402;9.796;2022-08-07T12:44:57;101859.84;;;23.73;33.03
20368;BME280;10343;52.402;9.796;2022-08-07T12:47:36;101849.16;;;23.86;33.56
20368;BME280;10343;52.402;9.796;2022-08-07T12:50:17;101839.97;;;23.88;33.74
20368;BME280;10343;52.402;9.796;2022-08-07T12:53:11;101846.69;;;23.97;34.04
20368;BME280;10343;52.402;9.796;2022-08-07T12:55:50;101839.06;;;24.18;33.61
20368;BME280;10343;52.402;9.796;2022-08-07T12:58:32;101837.41;;;24.30;32.09
20368;BME280;10343;52.402;9.796;2022-08-07T13:01:16;101839.25;;;24.30;33.49
20368;BME280;10343;52.402;9.796;2022-08-07T13:03:57;101838.66;;;24.53;32.63
20368;BME280;10343;52.402;9.796;2022-08-07T13:06:45;101834.59;;;24.61;31.24
20368;BME280;10343;52.402;9.796;2022-08-07T13:09:39;101835.28;;;24.64;31.11
20368;BME280;10343;52.402;9.796;2022-08-07T13:12:47;101832.50;;;24.37;30.94
20368;BME280;10343;52.402;9.796;2022-08-07T13:15:25;101824.34;;;24.22;31.38
20368;BME280;10343;52.402;9.796;2022-08-07T13:18:08;101824.91;;;24.13;31.23
20368;BME280;10343;52.402;9.796;2022-08-07T13:20:56;101828.91;;;24.22;31.69
20368;BME280;10343;52.402;9.796;2022-08-07T13:23:34;101834.81;;;24.29;31.08
20368;BME280;10343;52.402;9.796;2022-08-07T13:26:29;101823.38;;;24.23;31.49
20368;BME280;10343;52.402;9.796;2022-08-07T13:29:05;101816.88;;;24.40;31.56
20368;BME280;10343;52.402;9.796;2022-08-07T13:31:42;101810.88;;;24.50;31.37
20368;BME280;10343;52.402;9.796;2022-08-07T13:34:36;101810.78;;;24.51;30.83
20368;BME280;10343;52.402;9.796;2022-08-07T13:37:16;101814.28;;;24.53;31.65
20368;BME280;10343;52.402;9.796;2022-08-07T13:39:56;101813.88;;;24.59;31.20
20368;BME280;10343;52.402;9.796;2022-08-07T13:42:50;101814.69;;;24.62;32.22
20368;BME280;10343;52.402;9.796;2022-08-07T13:45:20;101803.00;;;24.59;31.39
20368;BME280;10343;52.402;9.796;2022-08-07T13:48:10;101798.91;;;24.39;31.76
20368;BME280;10343;52.402;9.796;2022-08-07T13:51:00;101794.91;;;24.31;32.32
20368;BME280;10343;52.402;9.796;2022-08-07T13:53:52;101780.63;;;24.00;32.03
20368;BME280;10343;52.402;9.796;2022-08-07T13:56:30;101787.97;;;23.98;32.46
20368;BME280;10343;52.402;9.796;2022-08-07T13:59:16;101788.84;;;23.98;32.08
20368;BME280;10343;52.402;9.796;2022-08-07T14:01:51;101782.75;;;23.95;32.25
20368;BME280;10343;52.402;9.796;2022-08-07T14:04:32;101787.03;;;23.68;32.27
20368;BME280;10343;52.402;9.796;2022-08-07T14:07:14;101776.03;;;23.41;32.77
20368;BME280;10343;52.402;9.796;2022-08-07T14:09:44;101776.59;;;23.32;32.90
20368;BME280;10343;52.402;9.796;2022-08-07T14:12:38;101775.28;;;23.39;33.36
20368;BME280;10343;52.402;9.796;2022-08-07T14:15:27;101777.69;;;23.44;32.53
20368;BME280;10343;52.402;9.796;2022-08-07T14:18:03;101777.38;;;23.34;32.52
20368;BME280;10343;52.402;9.796;2022-08-07T14:21:00;101772.97;;;23.47;32.76